createdAt,value
2023-05-14T01:52:03.791Z,1.35
2023-05-14T02:08:47.930Z,1.10
2023-05-14T02:21:59.124Z,1.17
2023-05-14T02:35:57.144Z,1.20
2023-05-14T02:38:35.958Z,1.10
2023-05-14T02:41:14.920Z,1.20
2023-05-14T02:43:53.797Z,1.10
2023-05-14T02:58:12.897Z,0.95
2023-05-14T03:00:51.828Z,1.00
2023-05-14T03:03:31.604Z,1.02
2023-05-14T03:06:11.517Z,1.10
2023-05-14T03:08:51.445Z,1.10
2023-05-14T03:11:29.858Z,1.10
2023-05-14T03:14:08.983Z,1.20
2023-05-14T03:16:49.666Z,1.15
2023-05-14T03:19:28.425Z,1.42
2023-05-14T03:22:07.082Z,1.33
2023-05-14T03:24:47.451Z,1.30
2023-05-14T03:27:26.920Z,1.63
2023-05-14T03:30:06.727Z,1.20
2023-05-14T03:32:47.593Z,1.10
2023-05-14T03:35:26.679Z,1.40
2023-05-14T03:38:05.520Z,1.50
2023-05-14T03:40:44.570Z,1.50
2023-05-14T03:43:23.540Z,1.70
2023-05-14T03:46:03.467Z,1.90
2023-05-14T03:48:42.633Z,1.92
2023-05-14T03:51:41.411Z,1.50
2023-05-14T03:54:20.361Z,1.63
2023-05-14T03:56:59.175Z,1.33
2023-05-14T04:02:37.008Z,1.30
2023-05-14T04:05:16.458Z,1.20
2023-05-14T04:07:56.460Z,1.40
2023-05-14T04:10:36.296Z,1.30
2023-05-14T04:13:16.040Z,1.23
2023-05-14T04:15:56.027Z,1.10
2023-05-14T04:18:36.180Z,1.20
2023-05-14T04:21:15.024Z,1.20
2023-05-14T04:23:57.345Z,1.50
2023-05-14T04:26:37.631Z,1.40
2023-05-14T04:29:19.343Z,1.38
2023-05-14T04:32:20.362Z,1.23
2023-05-14T04:35:00.060Z,1.42
2023-05-14T04:40:38.581Z,1.20
2023-05-14T04:43:18.349Z,1.40
2023-05-14T04:45:58.618Z,1.13
2023-05-14T04:51:35.015Z,1.33
2023-05-14T04:54:15.222Z,1.27
2023-05-14T04:56:55.955Z,1.30
2023-05-14T04:59:39.558Z,1.17
2023-05-14T05:02:18.870Z,1.10
2023-05-14T05:04:59.414Z,1.35
2023-05-14T05:10:55.552Z,1.40
2023-05-14T05:13:36.846Z,1.07
2023-05-14T05:16:35.824Z,1.30
2023-05-14T05:19:15.708Z,1.60
2023-05-14T05:21:56.451Z,1.50
2023-05-14T05:24:37.001Z,1.50
2023-05-14T05:27:16.677Z,1.17
2023-05-14T05:32:54.470Z,1.23
2023-05-14T05:35:34.123Z,1.20
2023-05-14T05:38:14.823Z,1.23
2023-05-14T05:40:54.919Z,1.50
2023-05-14T05:43:36.259Z,1.50
2023-05-14T05:46:18.523Z,1.27
2023-05-14T05:48:59.211Z,1.90
2023-05-14T05:51:40.444Z,1.60
2023-05-14T05:57:17.175Z,1.30
2023-05-14T05:59:58.220Z,1.50
2023-05-14T06:02:49.295Z,1.30
2023-05-14T06:05:28.844Z,1.30
2023-05-14T06:08:28.371Z,1.17
2023-05-14T06:14:07.170Z,1.37
2023-05-14T06:16:48.639Z,1.40
2023-05-14T06:19:30.156Z,1.38
2023-05-14T06:22:10.803Z,1.40
2023-05-14T06:25:10.048Z,1.30
2023-05-14T06:31:08.682Z,1.42
2023-05-14T06:33:50.215Z,1.70
2023-05-14T06:36:31.654Z,1.52
2023-05-14T06:39:12.273Z,1.25
2023-05-14T06:41:56.522Z,1.50
2023-05-14T06:44:39.656Z,1.55
2023-05-14T06:47:20.279Z,1.88
2023-05-14T06:50:00.192Z,1.50
2023-05-14T06:52:41.954Z,1.50
2023-05-14T06:55:21.756Z,1.50
2023-05-14T06:58:01.579Z,1.98
2023-05-14T07:00:42.032Z,1.50
2023-05-14T07:03:21.792Z,1.67
2023-05-14T07:06:02.766Z,1.55
2023-05-14T07:08:42.393Z,1.77
2023-05-14T07:11:23.406Z,1.40
2023-05-14T07:20:20.301Z,1.60
2023-05-14T07:23:02.365Z,1.40
2023-05-14T07:25:48.382Z,1.63
2023-05-14T07:34:26.952Z,1.70
2023-05-14T07:37:09.977Z,1.63
2023-05-14T07:39:50.483Z,1.45
2023-05-14T07:42:50.676Z,1.63
2023-05-14T07:45:32.152Z,1.73
2023-05-14T07:48:14.807Z,1.70
2023-05-14T07:50:58.303Z,1.70
2023-05-14T07:53:37.261Z,1.67
2023-05-14T07:56:19.742Z,1.60
2023-05-14T08:05:15.966Z,1.87
2023-05-14T08:07:56.303Z,1.70
2023-05-14T08:10:38.974Z,2.00
2023-05-14T08:13:20.194Z,2.10
2023-05-14T08:18:59.800Z,1.40
2023-05-14T08:21:41.565Z,1.60
2023-05-14T08:24:41.697Z,1.88
2023-05-14T08:27:43.010Z,2.03
2023-05-14T08:30:24.585Z,1.70
2023-05-14T08:33:06.764Z,2.13
2023-05-14T08:35:48.240Z,2.00
2023-05-14T08:38:29.938Z,2.00
2023-05-14T08:44:26.631Z,1.80
2023-05-14T08:47:30.208Z,1.90
2023-05-14T08:53:11.746Z,1.77
2023-05-14T08:55:53.279Z,1.77
2023-05-14T08:58:35.566Z,1.42
2023-05-14T09:01:16.254Z,1.70
2023-05-14T09:04:00.162Z,1.48
2023-05-14T09:06:41.484Z,1.70
2023-05-14T09:09:23.186Z,2.10
2023-05-14T09:12:06.011Z,1.60
2023-05-14T09:14:48.463Z,1.60
2023-05-14T09:21:06.070Z,1.80
2023-05-14T09:24:06.439Z,2.03
2023-05-14T09:26:49.590Z,2.03
2023-05-14T09:29:33.732Z,1.60
2023-05-14T09:32:17.297Z,1.80
2023-05-14T09:35:03.036Z,2.05
2023-05-14T09:37:49.889Z,1.70
2023-05-14T09:40:32.315Z,1.77
2023-05-14T09:43:14.215Z,1.37
2023-05-14T09:45:58.431Z,1.88
2023-05-14T09:51:58.553Z,1.90
2023-05-14T09:55:01.165Z,2.10
2023-05-14T10:00:44.244Z,2.17
2023-05-14T10:03:28.250Z,1.73
2023-05-14T10:06:14.356Z,1.92
2023-05-14T10:09:00.800Z,1.67
2023-05-14T10:11:46.070Z,1.80
2023-05-14T10:14:34.347Z,1.90
2023-05-14T10:17:41.529Z,1.80
2023-05-14T10:20:25.594Z,1.40
2023-05-14T10:29:06.503Z,2.20
2023-05-14T10:32:02.584Z,2.17
2023-05-14T10:34:54.042Z,1.90
2023-05-14T10:37:36.460Z,1.80
2023-05-14T10:40:39.992Z,1.83
2023-05-14T10:46:22.404Z,1.70
2023-05-14T10:49:07.365Z,1.77
2023-05-14T10:54:48.179Z,1.48
2023-05-14T10:57:32.739Z,2.30
2023-05-14T11:00:15.697Z,2.10
2023-05-14T11:03:18.243Z,2.03
2023-05-14T11:06:02.099Z,2.13
2023-05-14T11:08:45.242Z,1.85
2023-05-14T11:11:25.880Z,1.80
2023-05-14T11:14:08.435Z,1.90
2023-05-14T11:16:52.467Z,1.77
2023-05-14T11:19:53.323Z,1.88
2023-05-14T11:25:35.148Z,2.10
2023-05-14T11:28:17.865Z,2.30
2023-05-14T11:33:59.744Z,1.98
2023-05-14T11:36:43.258Z,2.00
2023-05-14T11:39:28.118Z,1.73
2023-05-14T11:42:24.504Z,2.15
2023-05-14T11:45:08.950Z,2.15
2023-05-14T11:47:52.182Z,2.27
2023-05-14T11:50:37.991Z,2.28
2023-05-14T11:56:41.826Z,2.22
2023-05-14T11:59:27.287Z,2.30
2023-05-14T12:02:14.017Z,2.70
2023-05-14T12:05:03.450Z,2.10
2023-05-14T12:07:44.175Z,1.98
2023-05-14T12:10:26.971Z,2.40
2023-05-14T12:13:08.978Z,2.30
2023-05-14T12:15:54.591Z,2.33
2023-05-14T12:18:38.499Z,2.20
2023-05-14T12:21:20.809Z,2.80
2023-05-14T12:24:07.956Z,2.78
2023-05-14T12:26:55.963Z,3.40
2023-05-14T12:29:37.259Z,2.70
2023-05-14T12:32:28.348Z,2.15
2023-05-14T12:35:40.722Z,2.17
2023-05-14T12:38:47.682Z,2.45
2023-05-14T12:41:28.982Z,1.90
2023-05-14T12:44:28.671Z,2.05
2023-05-14T12:47:08.727Z,1.65
2023-05-14T12:49:49.663Z,2.15
2023-05-14T12:55:13.957Z,1.50
2023-05-14T12:57:54.637Z,1.65
2023-05-14T13:00:34.817Z,1.85
2023-05-14T13:03:14.656Z,1.63
2023-05-14T13:05:53.957Z,1.75
2023-05-14T13:08:35.218Z,2.00
2023-05-14T13:11:14.848Z,1.37
2023-05-14T13:13:54.300Z,1.50
2023-05-14T13:19:52.207Z,2.40
2023-05-14T13:22:33.196Z,2.80
2023-05-14T13:25:14.223Z,1.90
2023-05-14T13:27:56.809Z,1.50
2023-05-14T13:30:39.432Z,1.50
2023-05-14T13:33:19.347Z,1.80
2023-05-14T13:35:59.364Z,1.70
2023-05-14T13:38:40.638Z,1.40
2023-05-14T13:41:20.932Z,1.98
2023-05-14T13:44:00.953Z,1.65
2023-05-14T13:46:40.225Z,2.07
2023-05-14T13:49:15.471Z,1.65
2023-05-14T13:51:45.552Z,1.60
2023-05-14T13:54:15.277Z,1.55
2023-05-14T13:56:44.935Z,1.48
2023-05-14T13:59:15.009Z,1.40
2023-05-14T14:01:44.720Z,1.30
2023-05-14T14:04:17.284Z,1.20
2023-05-14T14:06:47.139Z,1.52
2023-05-14T14:09:16.798Z,1.50
2023-05-14T14:11:46.568Z,1.70
2023-05-14T14:14:16.402Z,2.00
2023-05-14T14:16:46.540Z,2.17
2023-05-14T14:19:18.274Z,1.77
